EST,Max TemperatureF,Mean TemperatureF,Min TemperatureF,Max Dew PointF,MeanDew PointF,Min DewpointF,Max Humidity, Mean Humidity, Min Humidity, Max Sea Level PressureIn, Mean Sea Level PressureIn, Min Sea Level PressureIn, Max VisibilityMiles, Mean VisibilityMiles, Min VisibilityMiles, Max Wind SpeedMPH, Mean Wind SpeedMPH, Max Gust SpeedMPH,PrecipitationIn, CloudCover, Events, WindDirDegrees
2012-11-1,50,46,43,41,38,35,85,73,63,29.56,29.53,29.50,10,10,10,9,5,,0.00,8,,212
2012-11-2,48,44,39,41,36,32,97,74,54,29.65,29.58,29.55,10,10,10,12,5,18,0.00,7,,272
2012-11-3,48,41,30,33,31,27,85,66,52,29.85,29.75,29.64,10,10,10,15,6,20,0.00,5,,314
2012-11-4,46,37,28,31,29,27,100,70,54,29.96,29.91,29.85,10,10,10,14,4,24,0.00,6,,323
2012-11-5,39,30,19,25,20,15,89,60,41,30.16,30.05,29.97,10,10,10,13,8,16,0.00,5,,339
2012-11-6,39,28,16,20,16,12,92,68,32,30.25,30.21,30.17,10,10,10,8,1,,0.00,0,,347
2012-11-7,36,28,19,23,16,8,89,54,31,30.18,30.00,29.82,10,10,6,25,9,34,0.00,7,Snow,15
2012-11-8,39,36,32,30,27,23,81,70,56,29.84,29.78,29.71,10,9,4,25,15,33,0.00,8,Rain-Snow,346
2012-11-9,51,42,33,32,24,14,70,56,24,30.12,29.97,29.82,10,10,10,20,12,26,0.00,3,,329
2012-11-10,55,42,28,33,29,23,96,67,31,30.45,30.30,30.12,10,10,8,13,2,17,0.00,2,,325
2012-11-11,61,49,37,45,39,30,100,74,52,30.49,30.45,30.40,10,9,2,15,3,21,0.00,3,,185
2012-11-12,62,48,33,56,42,33,100,90,67,30.47,30.40,30.19,10,5,0,18,2,26,0.00,3,Fog,188
2012-11-13,63,48,30,57,40,28,93,81,67,30.45,30.27,30.09,10,10,6,25,11,37,0.22,7,Rain,309
2012-11-14,46,36,24,29,25,21,96,75,44,30.57,30.51,30.45,10,10,10,10,3,,0.00,2,,339
2012-11-15,44,32,21,27,23,18,92,76,43,30.50,30.41,30.32,10,10,9,7,1,,0.00,0,,354
2012-11-16,42,33,24,27,23,21,92,75,43,30.47,30.36,30.31,10,10,9,14,2,,0.00,0,,325
2012-11-17,46,34,23,29,24,21,96,76,41,30.68,30.60,30.47,10,10,7,10,2,,0.00,0,,350
2012-11-18,46,32,17,31,23,14,96,80,46,30.75,30.69,30.65,10,8,6,6,0,,0.00,0,,25
2012-11-19,48,32,17,30,23,14,93,81,44,30.63,30.49,30.29,10,8,2,4,0,,0.00,0,,80
2012-11-20,48,34,19,28,24,16,96,77,39,30.27,30.20,30.15,10,9,6,7,0,,0.00,0,,20
2012-11-21,51,39,26,28,26,23,92,72,33,30.29,30.24,30.19,10,10,6,7,1,,0.00,0,,20
2012-11-22,54,38,21,37,28,20,96,81,45,30.30,30.23,30.15,10,8,6,6,1,,0.00,0,,197
2012-11-23,55,39,23,43,33,21,100,83,45,30.13,29.90,29.62,10,7,0,13,2,18,0.00,5,Fog-Rain,179
2012-11-24,46,38,30,43,24,14,93,58,33,29.68,29.63,29.57,10,10,8,20,10,32,0.00,6,Rain,281
2012-11-25,35,32,28,22,17,13,69,54,43,29.86,29.79,29.70,10,10,10,18,11,29,0.00,4,,258
2012-11-26,43,35,26,24,22,18,88,62,38,30.25,30.04,29.86,10,10,10,13,7,23,0.00,5,,227
2012-11-27,34,28,21,32,30,21,100,94,85,30.32,30.26,30.23,10,3,0,4,0,,0.05,8,Fog-Snow,160
2012-11-28,37,29,21,30,26,19,100,85,57,30.22,30.19,30.13,10,9,2,7,2,,0.00,5,,335
2012-11-29,42,32,21,24,22,16,92,62,35,30.26,30.20,30.16,10,10,9,10,6,20,0.00,3,,216
2012-11-30,35,32,28,26,9,-3,73,44,23,30.55,30.44,30.22,10,10,10,12,6,16,0.00,8,,6